sensor_id;sensor_type;location;lat;lon;timestamp;temperature;humidity
4433;DHT22;2229;48.708;9.706;2023-02-18T00:01:28;11.60;99.90
4433;DHT22;2229;48.708;9.706;2023-02-18T00:03:56;11.70;99.90
4433;DHT22;2229;48.708;9.706;2023-02-18T00:06:25;11.60;99.90
4433;DHT22;2229;48.708;9.706;2023-02-18T00:08:54;11.70;99.90
4433;DHT22;2229;48.708;9.706;2023-02-18T00:11:24;11.60;99.90
4433;DHT22;2229;48.708;9.706;2023-02-18T00:13:55;11.70;99.90
4433;DHT22;2229;48.708;9.706;2023-02-18T00:16:23;11.70;99.90
4433;DHT22;2229;48.708;9.706;2023-02-18T00:18:54;11.70;99.90
4433;DHT22;2229;48.708;9.706;2023-02-18T00:21:22;11.60;99.90
4433;DHT22;2229;48.708;9.706;2023-02-18T00:23:50;11.70;99.90
4433;DHT22;2229;48.708;9.706;2023-02-18T00:26:18;11.70;99.90
4433;DHT22;2229;48.708;9.706;2023-02-18T00:28:47;11.70;99.90
4433;DHT22;2229;48.708;9.706;2023-02-18T00:31:18;11.70;99.90
4433;DHT22;2229;48.708;9.706;2023-02-18T00:33:46;11.70;99.90
4433;DHT22;2229;48.708;9.706;2023-02-18T00:36:15;11.70;99.90
4433;DHT22;2229;48.708;9.706;2023-02-18T00:38:43;11.70;99.90
4433;DHT22;2229;48.708;9.706;2023-02-18T00:41:11;11.70;99.90
4433;DHT22;2229;48.708;9.706;2023-02-18T00:43:38;11.70;99.90
4433;DHT22;2229;48.708;9.706;2023-02-18T00:46:05;11.80;99.90
4433;DHT22;2229;48.708;9.706;2023-02-18T00:48:34;11.80;99.90
4433;DHT22;2229;48.708;9.706;2023-02-18T00:51:02;11.80;99.90
4433;DHT22;2229;48.708;9.706;2023-02-18T00:53:29;11.80;99.90
4433;DHT22;2229;48.708;9.706;2023-02-18T00:55:57;11.80;99.90
4433;DHT22;2229;48.708;9.706;2023-02-18T00:58:25;11.70;99.90
4433;DHT22;2229;48.708;9.706;2023-02-18T01:00:53;11.80;99.90
4433;DHT22;2229;48.708;9.706;2023-02-18T01:03:22;11.80;99.90
4433;DHT22;2229;48.708;9.706;2023-02-18T01:05:51;11.70;99.90
4433;DHT22;2229;48.708;9.706;2023-02-18T01:08:20;11.70;99.90
4433;DHT22;2229;48.708;9.706;2023-02-18T01:10:52;11.70;99.90
4433;DHT22;2229;48.708;9.706;2023-02-18T01:13:21;11.80;99.90
4433;DHT22;2229;48.708;9.706;2023-02-18T01:15:48;11.70;99.90
4433;DHT22;2229;48.708;9.706;2023-02-18T01:18:16;11.70;99.90
4433;DHT22;2229;48.708;9.706;2023-02-18T01:20:44;11.80;99.90
4433;DHT22;2229;48.708;9.706;2023-02-18T01:23:14;11.70;99.90
4433;DHT22;2229;48.708;9.706;2023-02-18T01:25:41;11.70;99.90
4433;DHT22;2229;48.708;9.706;2023-02-18T01:28:11;11.70;99.90
4433;DHT22;2229;48.708;9.706;2023-02-18T01:30:40;11.80;99.90
4433;DHT22;2229;48.708;9.706;2023-02-18T01:33:08;11.70;99.90
4433;DHT22;2229;48.708;9.706;2023-02-18T01:35:38;11.70;99.90
4433;DHT22;2229;48.708;9.706;2023-02-18T01:38:07;11.70;99.90
4433;DHT22;2229;48.708;9.706;2023-02-18T01:40:43;11.70;99.90
4433;DHT22;2229;48.708;9.706;2023-02-18T01:43:11;11.70;99.90
4433;DHT22;2229;48.708;9.706;2023-02-18T01:45:50;11.70;99.90
4433;DHT22;2229;48.708;9.706;2023-02-18T01:48:21;11.70;99.90
4433;DHT22;2229;48.708;9.706;2023-02-18T01:50:55;11.80;99.90
4433;DHT22;2229;48.708;9.706;2023-02-18T01:53:26;11.80;99.90
4433;DHT22;2229;48.708;9.706;2023-02-18T01:55:56;11.80;99.90
4433;DHT22;2229;48.708;9.706;2023-02-18T01:58:25;11.80;99.90
4433;DHT22;2229;48.708;9.706;2023-02-18T02:00:52;11.80;99.90
4433;DHT22;2229;48.708;9.706;2023-02-18T02:03:20;11.80;99.90
4433;DHT22;2229;48.708;9.706;2023-02-18T02:05:47;11.80;99.90
4433;DHT22;2229;48.708;9.706;2023-02-18T02:08:15;11.80;99.90
4433;DHT22;2229;48.708;9.706;2023-02-18T02:11:01;11.80;99.90
4433;DHT22;2229;48.708;9.706;2023-02-18T02:13:43;11.80;99.90
4433;DHT22;2229;48.708;9.706;2023-02-18T02:16:20;11.80;99.90
4433;DHT22;2229;48.708;9.706;2023-02-18T02:18:57;11.80;99.90
4433;DHT22;2229;48.708;9.706;2023-02-18T02:25:02;11.80;99.90
4433;DHT22;2229;48.708;9.706;2023-02-18T02:30:44;11.80;99.90
4433;DHT22;2229;48.708;9.706;2023-02-18T02:33:40;11.80;99.90
4433;DHT22;2229;48.708;9.706;2023-02-18T02:36:15;11.80;99.90
4433;DHT22;2229;48.708;9.706;2023-02-18T02:38:53;11.80;99.90
4433;DHT22;2229;48.708;9.706;2023-02-18T02:41:31;11.80;99.90
4433;DHT22;2229;48.708;9.706;2023-02-18T02:44:10;11.80;99.90
4433;DHT22;2229;48.708;9.706;2023-02-18T02:46:42;11.80;99.90
4433;DHT22;2229;48.708;9.706;2023-02-18T02:49:24;11.80;99.90
4433;DHT22;2229;48.708;9.706;2023-02-18T02:51:59;11.80;99.90
4433;DHT22;2229;48.708;9.706;2023-02-18T02:54:29;11.80;99.90
4433;DHT22;2229;48.708;9.706;2023-02-18T02:57:07;11.80;99.90
4433;DHT22;2229;48.708;9.706;2023-02-18T02:59:39;11.80;99.90
4433;DHT22;2229;48.708;9.706;2023-02-18T03:02:19;11.70;99.90
4433;DHT22;2229;48.708;9.706;2023-02-18T03:05:02;11.80;99.90
4433;DHT22;2229;48.708;9.706;2023-02-18T03:07:54;11.70;99.90
4433;DHT22;2229;48.708;9.706;2023-02-18T03:10:39;11.70;99.90
4433;DHT22;2229;48.708;9.706;2023-02-18T03:13:16;11.70;99.90
4433;DHT22;2229;48.708;9.706;2023-02-18T03:15:49;11.70;99.90
4433;DHT22;2229;48.708;9.706;2023-02-18T03:18:24;11.70;99.90
4433;DHT22;2229;48.708;9.706;2023-02-18T03:20:56;11.70;99.80
4433;DHT22;2229;48.708;9.706;2023-02-18T03:23:27;11.70;99.70
4433;DHT22;2229;48.708;9.706;2023-02-18T03:25:58;11.70;99.70
4433;DHT22;2229;48.708;9.706;2023-02-18T03:28:29;11.70;99.60
4433;DHT22;2229;48.708;9.706;2023-02-18T03:30:59;11.70;99.60
4433;DHT22;2229;48.708;9.706;2023-02-18T03:33:32;11.70;99.60
4433;DHT22;2229;48.708;9.706;2023-02-18T03:36:02;11.70;99.60
4433;DHT22;2229;48.708;9.706;2023-02-18T03:38:34;11.70;99.70
4433;DHT22;2229;48.708;9.706;2023-02-18T03:41:04;11.70;99.70
4433;DHT22;2229;48.708;9.706;2023-02-18T03:43:33;11.70;99.70
4433;DHT22;2229;48.708;9.706;2023-02-18T03:46:00;11.70;99.60
4433;DHT22;2229;48.708;9.706;2023-02-18T03:48:28;11.70;99.60
4433;DHT22;2229;48.708;9.706;2023-02-18T03:50:55;11.70;99.50
4433;DHT22;2229;48.708;9.706;2023-02-18T03:53:23;11.70;99.50
4433;DHT22;2229;48.708;9.706;2023-02-18T03:55:52;11.70;99.40
4433;DHT22;2229;48.708;9.706;2023-02-18T03:58:19;11.80;99.30
4433;DHT22;2229;48.708;9.706;2023-02-18T04:00:47;11.70;99.20
4433;DHT22;2229;48.708;9.706;2023-02-18T04:03:14;11.70;99.10
4433;DHT22;2229;48.708;9.706;2023-02-18T04:05:42;11.80;99.10
4433;DHT22;2229;48.708;9.706;2023-02-18T04:08:09;11.80;99.10
4433;DHT22;2229;48.708;9.706;2023-02-18T04:10:36;11.70;98.90
4433;DHT22;2229;48.708;9.706;2023-02-18T04:13:05;11.80;99.00
4433;DHT22;2229;48.708;9.706;2023-02-18T04:15:32;11.80;98.80
4433;DHT22;2229;48.708;9.706;2023-02-18T04:18:00;11.80;98.80
4433;DHT22;2229;48.708;9.706;2023-02-18T04:20:27;11.80;98.70
4433;DHT22;2229;48.708;9.706;2023-02-18T04:22:56;11.70;98.70
4433;DHT22;2229;48.708;9.706;2023-02-18T04:25:23;11.80;98.70
4433;DHT22;2229;48.708;9.706;2023-02-18T04:27:50;11.70;98.60
4433;DHT22;2229;48.708;9.706;2023-02-18T04:30:20;11.70;98.50
4433;DHT22;2229;48.708;9.706;2023-02-18T04:32:47;11.70;98.50
4433;DHT22;2229;48.708;9.706;2023-02-18T04:35:14;11.70;98.40
4433;DHT22;2229;48.708;9.706;2023-02-18T04:37:42;11.70;98.40
4433;DHT22;2229;48.708;9.706;2023-02-18T04:40:10;11.70;98.30
4433;DHT22;2229;48.708;9.706;2023-02-18T04:42:37;11.70;98.20
4433;DHT22;2229;48.708;9.706;2023-02-18T04:45:05;11.70;98.20
4433;DHT22;2229;48.708;9.706;2023-02-18T04:47:33;11.70;98.20
4433;DHT22;2229;48.708;9.706;2023-02-18T04:50:01;11.70;98.20
4433;DHT22;2229;48.708;9.706;2023-02-18T04:52:28;11.70;98.10
4433;DHT22;2229;48.708;9.706;2023-02-18T04:54:56;11.60;98.10
4433;DHT22;2229;48.708;9.706;2023-02-18T04:57:23;11.60;98.10
4433;DHT22;2229;48.708;9.706;2023-02-18T04:59:50;11.60;98.10
4433;DHT22;2229;48.708;9.706;2023-02-18T05:02:18;11.60;98.00
4433;DHT22;2229;48.708;9.706;2023-02-18T05:04:47;11.60;98.00
4433;DHT22;2229;48.708;9.706;2023-02-18T05:07:14;11.60;98.00
4433;DHT22;2229;48.708;9.706;2023-02-18T05:09:41;11.60;97.90
4433;DHT22;2229;48.708;9.706;2023-02-18T05:12:09;11.50;97.80
4433;DHT22;2229;48.708;9.706;2023-02-18T05:14:36;11.50;97.80
4433;DHT22;2229;48.708;9.706;2023-02-18T05:17:03;11.50;97.90
4433;DHT22;2229;48.708;9.706;2023-02-18T05:19:30;11.40;97.90
4433;DHT22;2229;48.708;9.706;2023-02-18T05:21:59;11.40;98.00
4433;DHT22;2229;48.708;9.706;2023-02-18T05:24:26;11.40;98.10
4433;DHT22;2229;48.708;9.706;2023-02-18T05:26:54;11.30;98.20
4433;DHT22;2229;48.708;9.706;2023-02-18T05:29:21;11.30;98.30
4433;DHT22;2229;48.708;9.706;2023-02-18T05:31:48;11.30;98.40
4433;DHT22;2229;48.708;9.706;2023-02-18T05:34:16;11.30;98.60
4433;DHT22;2229;48.708;9.706;2023-02-18T05:36:44;11.30;98.60
4433;DHT22;2229;48.708;9.706;2023-02-18T05:39:12;11.40;98.70
4433;DHT22;2229;48.708;9.706;2023-02-18T05:41:40;11.40;98.70
4433;DHT22;2229;48.708;9.706;2023-02-18T05:44:07;11.40;98.70
4433;DHT22;2229;48.708;9.706;2023-02-18T05:46:51;11.40;98.80
4433;DHT22;2229;48.708;9.706;2023-02-18T05:49:19;11.40;98.90
4433;DHT22;2229;48.708;9.706;2023-02-18T05:51:47;11.40;99.00
4433;DHT22;2229;48.708;9.706;2023-02-18T05:54:16;11.40;99.10
4433;DHT22;2229;48.708;9.706;2023-02-18T05:56:43;11.30;99.10
4433;DHT22;2229;48.708;9.706;2023-02-18T05:59:11;11.30;99.20
4433;DHT22;2229;48.708;9.706;2023-02-18T06:01:39;11.40;99.30
4433;DHT22;2229;48.708;9.706;2023-02-18T06:04:07;11.40;99.40
4433;DHT22;2229;48.708;9.706;2023-02-18T06:06:34;11.40;99.50
4433;DHT22;2229;48.708;9.706;2023-02-18T06:09:02;11.40;99.50
4433;DHT22;2229;48.708;9.706;2023-02-18T06:11:31;11.40;99.60
4433;DHT22;2229;48.708;9.706;2023-02-18T06:13:59;11.40;99.60
4433;DHT22;2229;48.708;9.706;2023-02-18T06:16:26;11.40;99.60
4433;DHT22;2229;48.708;9.706;2023-02-18T06:18:54;11.40;99.70
4433;DHT22;2229;48.708;9.706;2023-02-18T06:21:21;11.40;99.70
4433;DHT22;2229;48.708;9.706;2023-02-18T06:23:49;11.40;99.70
4433;DHT22;2229;48.708;9.706;2023-02-18T06:26:16;11.40;99.70
4433;DHT22;2229;48.708;9.706;2023-02-18T06:28:45;11.40;99.90
4433;DHT22;2229;48.708;9.706;2023-02-18T06:31:12;11.30;99.70
4433;DHT22;2229;48.708;9.706;2023-02-18T06:33:39;11.40;99.80
4433;DHT22;2229;48.708;9.706;2023-02-18T06:36:08;11.30;99.80
4433;DHT22;2229;48.708;9.706;2023-02-18T06:38:38;11.30;99.80
4433;DHT22;2229;48.708;9.706;2023-02-18T06:41:05;11.40;99.90
4433;DHT22;2229;48.708;9.706;2023-02-18T06:43:32;11.40;99.90
4433;DHT22;2229;48.708;9.706;2023-02-18T06:46:01;11.40;99.80
4433;DHT22;2229;48.708;9.706;2023-02-18T06:48:29;11.40;99.80
4433;DHT22;2229;48.708;9.706;2023-02-18T06:50:57;11.40;99.80
4433;DHT22;2229;48.708;9.706;2023-02-18T06:53:25;11.50;99.90
4433;DHT22;2229;48.708;9.706;2023-02-18T06:55:52;11.50;99.80
4433;DHT22;2229;48.708;9.706;2023-02-18T06:58:20;11.50;99.70
4433;DHT22;2229;48.708;9.706;2023-02-18T07:00:48;11.50;99.70
4433;DHT22;2229;48.708;9.706;2023-02-18T07:03:16;11.50;99.60
4433;DHT22;2229;48.708;9.706;2023-02-18T07:05:44;11.50;99.60
4433;DHT22;2229;48.708;9.706;2023-02-18T07:08:11;11.60;99.60
4433;DHT22;2229;48.708;9.706;2023-02-18T07:10:39;11.60;99.50
4433;DHT22;2229;48.708;9.706;2023-02-18T07:13:07;11.60;99.50
4433;DHT22;2229;48.708;9.706;2023-02-18T07:15:35;11.60;99.40
4433;DHT22;2229;48.708;9.706;2023-02-18T07:18:03;11.60;99.40
4433;DHT22;2229;48.708;9.706;2023-02-18T07:20:33;11.60;99.40
4433;DHT22;2229;48.708;9.706;2023-02-18T07:23:00;11.60;99.40
4433;DHT22;2229;48.708;9.706;2023-02-18T07:25:27;11.60;99.40
4433;DHT22;2229;48.708;9.706;2023-02-18T07:27:55;11.60;99.40
4433;DHT22;2229;48.708;9.706;2023-02-18T07:30:22;11.70;99.40
4433;DHT22;2229;48.708;9.706;2023-02-18T07:32:50;11.70;99.40
4433;DHT22;2229;48.708;9.706;2023-02-18T07:35:17;11.70;99.40
4433;DHT22;2229;48.708;9.706;2023-02-18T07:37:52;11.70;99.30
4433;DHT22;2229;48.708;9.706;2023-02-18T07:40:23;11.70;99.40
4433;DHT22;2229;48.708;9.706;2023-02-18T07:42:50;11.70;99.60
4433;DHT22;2229;48.708;9.706;2023-02-18T07:45:18;11.80;99.30
4433;DHT22;2229;48.708;9.706;2023-02-18T07:47:45;11.80;99.20
4433;DHT22;2229;48.708;9.706;2023-02-18T07:50:13;11.80;99.20
4433;DHT22;2229;48.708;9.706;2023-02-18T07:52:40;11.80;99.10
4433;DHT22;2229;48.708;9.706;2023-02-18T07:55:09;11.80;99.20
4433;DHT22;2229;48.708;9.706;2023-02-18T07:57:36;11.80;99.20
4433;DHT22;2229;48.708;9.706;2023-02-18T08:00:22;11.80;99.30
4433;DHT22;2229;48.708;9.706;2023-02-18T08:02:50;11.80;99.30
4433;DHT22;2229;48.708;9.706;2023-02-18T08:05:17;11.80;99.30
4433;DHT22;2229;48.708;9.706;2023-02-18T08:07:44;11.80;99.30
4433;DHT22;2229;48.708;9.706;2023-02-18T08:10:13;11.80;99.20
4433;DHT22;2229;48.708;9.706;2023-02-18T08:12:42;11.90;99.40
4433;DHT22;2229;48.708;9.706;2023-02-18T08:15:12;11.90;99.40
4433;DHT22;2229;48.708;9.706;2023-02-18T08:17:39;11.90;99.10
4433;DHT22;2229;48.708;9.706;2023-02-18T08:20:08;11.90;99.00
4433;DHT22;2229;48.708;9.706;2023-02-18T08:22:35;12.00;98.90
4433;DHT22;2229;48.708;9.706;2023-02-18T08:25:03;12.00;98.80
4433;DHT22;2229;48.708;9.706;2023-02-18T08:27:32;12.00;98.70
4433;DHT22;2229;48.708;9.706;2023-02-18T08:29:59;12.00;98.70
4433;DHT22;2229;48.708;9.706;2023-02-18T08:32:26;12.00;98.70
4433;DHT22;2229;48.708;9.706;2023-02-18T08:34:54;12.10;98.80
4433;DHT22;2229;48.708;9.706;2023-02-18T08:37:22;12.00;98.70
4433;DHT22;2229;48.708;9.706;2023-02-18T08:39:50;12.10;98.40
4433;DHT22;2229;48.708;9.706;2023-02-18T08:42:18;12.10;98.30
4433;DHT22;2229;48.708;9.706;2023-02-18T08:44:46;12.10;98.10
4433;DHT22;2229;48.708;9.706;2023-02-18T08:47:14;12.10;98.10
4433;DHT22;2229;48.708;9.706;2023-02-18T08:49:41;12.20;98.10
4433;DHT22;2229;48.708;9.706;2023-02-18T08:52:08;12.20;98.00
4433;DHT22;2229;48.708;9.706;2023-02-18T08:54:36;12.20;97.80
4433;DHT22;2229;48.708;9.706;2023-02-18T08:57:04;12.20;97.80
4433;DHT22;2229;48.708;9.706;2023-02-18T08:59:31;12.20;97.80
4433;DHT22;2229;48.708;9.706;2023-02-18T09:02:00;12.30;97.80
4433;DHT22;2229;48.708;9.706;2023-02-18T09:04:28;12.30;97.70
4433;DHT22;2229;48.708;9.706;2023-02-18T09:06:55;12.30;97.60
4433;DHT22;2229;48.708;9.706;2023-02-18T09:09:24;12.30;97.80
4433;DHT22;2229;48.708;9.706;2023-02-18T09:11:52;12.40;97.70
4433;DHT22;2229;48.708;9.706;2023-02-18T09:14:20;12.40;97.40
4433;DHT22;2229;48.708;9.706;2023-02-18T09:16:47;12.50;97.30
4433;DHT22;2229;48.708;9.706;2023-02-18T09:19:17;12.50;97.50
4433;DHT22;2229;48.708;9.706;2023-02-18T09:21:45;12.60;97.20
4433;DHT22;2229;48.708;9.706;2023-02-18T09:24:12;12.70;96.70
4433;DHT22;2229;48.708;9.706;2023-02-18T09:26:40;12.70;96.60
4433;DHT22;2229;48.708;9.706;2023-02-18T09:29:08;12.80;96.50
4433;DHT22;2229;48.708;9.706;2023-02-18T09:31:35;12.80;96.60
4433;DHT22;2229;48.708;9.706;2023-02-18T09:34:04;12.90;96.40
4433;DHT22;2229;48.708;9.706;2023-02-18T09:36:34;12.90;96.20
4433;DHT22;2229;48.708;9.706;2023-02-18T09:39:01;12.90;96.10
4433;DHT22;2229;48.708;9.706;2023-02-18T09:41:33;12.90;96.10
4433;DHT22;2229;48.708;9.706;2023-02-18T09:44:06;13.00;95.90
4433;DHT22;2229;48.708;9.706;2023-02-18T09:46:39;13.00;95.80
4433;DHT22;2229;48.708;9.706;2023-02-18T09:49:13;13.00;95.60
4433;DHT22;2229;48.708;9.706;2023-02-18T09:51:43;13.00;95.60
4433;DHT22;2229;48.708;9.706;2023-02-18T09:54:14;13.00;95.60
4433;DHT22;2229;48.708;9.706;2023-02-18T09:56:44;13.00;95.60
4433;DHT22;2229;48.708;9.706;2023-02-18T09:59:16;13.00;95.30
4433;DHT22;2229;48.708;9.706;2023-02-18T10:01:46;13.00;95.20
4433;DHT22;2229;48.708;9.706;2023-02-18T10:04:19;13.00;95.40
4433;DHT22;2229;48.708;9.706;2023-02-18T10:06:51;13.10;95.40
4433;DHT22;2229;48.708;9.706;2023-02-18T10:09:20;13.10;95.10
4433;DHT22;2229;48.708;9.706;2023-02-18T10:11:51;13.00;95.40
4433;DHT22;2229;48.708;9.706;2023-02-18T10:14:21;13.00;95.30
4433;DHT22;2229;48.708;9.706;2023-02-18T10:16:49;13.00;95.40
4433;DHT22;2229;48.708;9.706;2023-02-18T10:19:25;13.00;95.40
4433;DHT22;2229;48.708;9.706;2023-02-18T10:21:56;12.90;95.40
4433;DHT22;2229;48.708;9.706;2023-02-18T10:24:30;13.00;95.40
4433;DHT22;2229;48.708;9.706;2023-02-18T10:26:58;12.90;95.30
4433;DHT22;2229;48.708;9.706;2023-02-18T10:29:26;12.90;95.60
4433;DHT22;2229;48.708;9.706;2023-02-18T10:31:58;12.90;95.50
4433;DHT22;2229;48.708;9.706;2023-02-18T10:34:38;12.90;95.50
4433;DHT22;2229;48.708;9.706;2023-02-18T10:37:16;12.90;95.40
4433;DHT22;2229;48.708;9.706;2023-02-18T10:39:59;12.90;95.90
4433;DHT22;2229;48.708;9.706;2023-02-18T10:42:39;12.90;95.60
4433;DHT22;2229;48.708;9.706;2023-02-18T10:45:18;12.90;95.70
4433;DHT22;2229;48.708;9.706;2023-02-18T10:47:53;13.00;95.60
4433;DHT22;2229;48.708;9.706;2023-02-18T10:50:27;13.00;95.60
4433;DHT22;2229;48.708;9.706;2023-02-18T10:53:00;13.00;95.40
4433;DHT22;2229;48.708;9.706;2023-02-18T10:55:36;13.10;95.40
4433;DHT22;2229;48.708;9.706;2023-02-18T10:58:05;13.20;95.40
4433;DHT22;2229;48.708;9.706;2023-02-18T11:00:50;13.20;95.50
4433;DHT22;2229;48.708;9.706;2023-02-18T11:03:19;13.30;95.30
4433;DHT22;2229;48.708;9.706;2023-02-18T11:05:49;13.30;95.10
4433;DHT22;2229;48.708;9.706;2023-02-18T11:08:21;13.40;95.20
4433;DHT22;2229;48.708;9.706;2023-02-18T11:10:49;13.40;95.20
4433;DHT22;2229;48.708;9.706;2023-02-18T11:13:23;13.50;94.90
4433;DHT22;2229;48.708;9.706;2023-02-18T11:15:58;13.60;95.00
4433;DHT22;2229;48.708;9.706;2023-02-18T11:18:35;13.70;94.90
4433;DHT22;2229;48.708;9.706;2023-02-18T11:21:05;13.70;94.30
4433;DHT22;2229;48.708;9.706;2023-02-18T11:23:45;13.80;94.00
4433;DHT22;2229;48.708;9.706;2023-02-18T11:26:14;13.90;94.00
4433;DHT22;2229;48.708;9.706;2023-02-18T11:28:43;13.80;93.60
4433;DHT22;2229;48.708;9.706;2023-02-18T11:31:18;13.80;92.90
4433;DHT22;2229;48.708;9.706;2023-02-18T11:33:49;13.80;93.40
4433;DHT22;2229;48.708;9.706;2023-02-18T11:36:22;13.90;93.70
4433;DHT22;2229;48.708;9.706;2023-02-18T11:38:53;14.00;93.60
4433;DHT22;2229;48.708;9.706;2023-02-18T11:41:30;14.00;93.10
4433;DHT22;2229;48.708;9.706;2023-02-18T11:43:58;14.00;93.20
4433;DHT22;2229;48.708;9.706;2023-02-18T11:46:26;14.00;93.00
4433;DHT22;2229;48.708;9.706;2023-02-18T11:48:54;14.10;92.70
4433;DHT22;2229;48.708;9.706;2023-02-18T11:51:24;14.20;92.70
4433;DHT22;2229;48.708;9.706;2023-02-18T11:53:59;14.20;93.00
4433;DHT22;2229;48.708;9.706;2023-02-18T11:56:30;14.40;93.00
4433;DHT22;2229;48.708;9.706;2023-02-18T11:58:58;14.50;92.70
4433;DHT22;2229;48.708;9.706;2023-02-18T12:01:34;14.70;92.10
4433;DHT22;2229;48.708;9.706;2023-02-18T12:04:07;14.80;92.10
4433;DHT22;2229;48.708;9.706;2023-02-18T12:06:37;14.80;91.60
4433;DHT22;2229;48.708;9.706;2023-02-18T12:09:17;14.80;91.60
4433;DHT22;2229;48.708;9.706;2023-02-18T12:11:48;14.60;91.10
4433;DHT22;2229;48.708;9.706;2023-02-18T12:14:18;14.60;91.40
4433;DHT22;2229;48.708;9.706;2023-02-18T12:17:08;14.50;91.40
4433;DHT22;2229;48.708;9.706;2023-02-18T12:19:51;14.40;91.40
4433;DHT22;2229;48.708;9.706;2023-02-18T12:22:38;14.40;91.40
4433;DHT22;2229;48.708;9.706;2023-02-18T12:25:34;14.30;91.10
4433;DHT22;2229;48.708;9.706;2023-02-18T12:28:11;14.20;91.40
4433;DHT22;2229;48.708;9.706;2023-02-18T12:33:54;14.30;91.90
4433;DHT22;2229;48.708;9.706;2023-02-18T12:36:45;14.30;91.50
4433;DHT22;2229;48.708;9.706;2023-02-18T12:39:23;14.30;91.50
4433;DHT22;2229;48.708;9.706;2023-02-18T12:42:09;14.30;91.30
4433;DHT22;2229;48.708;9.706;2023-02-18T12:44:53;14.40;91.60
4433;DHT22;2229;48.708;9.706;2023-02-18T12:50:42;14.40;90.70
4433;DHT22;2229;48.708;9.706;2023-02-18T12:56:24;14.40;90.60
4433;DHT22;2229;48.708;9.706;2023-02-18T12:59:06;14.40;90.60
4433;DHT22;2229;48.708;9.706;2023-02-18T13:01:40;14.40;90.50
4433;DHT22;2229;48.708;9.706;2023-02-18T13:04:35;14.40;90.40
4433;DHT22;2229;48.708;9.706;2023-02-18T13:07:25;14.40;90.40
4433;DHT22;2229;48.708;9.706;2023-02-18T13:12:54;14.40;90.00
4433;DHT22;2229;48.708;9.706;2023-02-18T13:15:33;14.30;89.90
4433;DHT22;2229;48.708;9.706;2023-02-18T13:18:05;14.30;90.50
4433;DHT22;2229;48.708;9.706;2023-02-18T13:20:38;14.20;90.10
4433;DHT22;2229;48.708;9.706;2023-02-18T13:23:12;14.20;90.10
4433;DHT22;2229;48.708;9.706;2023-02-18T13:25:44;14.30;90.10
4433;DHT22;2229;48.708;9.706;2023-02-18T13:28:19;14.30;89.80
4433;DHT22;2229;48.708;9.706;2023-02-18T13:31:04;14.30;89.80
4433;DHT22;2229;48.708;9.706;2023-02-18T13:33:37;14.30;89.70
4433;DHT22;2229;48.708;9.706;2023-02-18T13:36:12;14.20;89.00
4433;DHT22;2229;48.708;9.706;2023-02-18T13:38:59;14.20;88.80
4433;DHT22;2229;48.708;9.706;2023-02-18T13:41:32;14.20;88.20
4433;DHT22;2229;48.708;9.706;2023-02-18T13:44:09;14.20;88.10
4433;DHT22;2229;48.708;9.706;2023-02-18T13:46:58;14.10;86.80
4433;DHT22;2229;48.708;9.706;2023-02-18T13:49:30;14.10;86.70
4433;DHT22;2229;48.708;9.706;2023-02-18T13:51:59;14.10;87.10
4433;DHT22;2229;48.708;9.706;2023-02-18T13:54:29;14.00;85.60
4433;DHT22;2229;48.708;9.706;2023-02-18T13:57:01;14.00;85.10
4433;DHT22;2229;48.708;9.706;2023-02-18T13:59:33;13.90;85.40
4433;DHT22;2229;48.708;9.706;2023-02-18T14:02:29;13.90;85.70
4433;DHT22;2229;48.708;9.706;2023-02-18T14:05:16;13.90;85.40
4433;DHT22;2229;48.708;9.706;2023-02-18T14:07:48;13.90;85.20
4433;DHT22;2229;48.708;9.706;2023-02-18T14:10:40;13.90;85.50
4433;DHT22;2229;48.708;9.706;2023-02-18T14:13:25;13.90;85.00
4433;DHT22;2229;48.708;9.706;2023-02-18T14:16:06;13.90;85.10
4433;DHT22;2229;48.708;9.706;2023-02-18T14:18:55;14.00;84.50
4433;DHT22;2229;48.708;9.706;2023-02-18T14:21:40;14.00;84.10
4433;DHT22;2229;48.708;9.706;2023-02-18T14:24:09;14.20;83.60
4433;DHT22;2229;48.708;9.706;2023-02-18T14:26:42;14.30;83.70
4433;DHT22;2229;48.708;9.706;2023-02-18T14:29:19;14.50;83.90
4433;DHT22;2229;48.708;9.706;2023-02-18T14:31:51;14.60;83.70
4433;DHT22;2229;48.708;9.706;2023-02-18T14:43:51;15.10;82.50
4433;DHT22;2229;48.708;9.706;2023-02-18T14:46:31;15.20;81.10
4433;DHT22;2229;48.708;9.706;2023-02-18T14:49:12;15.20;80.20
4433;DHT22;2229;48.708;9.706;2023-02-18T14:51:44;15.10;80.20
4433;DHT22;2229;48.708;9.706;2023-02-18T14:54:15;15.10;79.80
4433;DHT22;2229;48.708;9.706;2023-02-18T14:56:56;15.00;79.10
4433;DHT22;2229;48.708;9.706;2023-02-18T14:59:29;14.80;79.70
4433;DHT22;2229;48.708;9.706;2023-02-18T15:01:58;14.70;80.20
4433;DHT22;2229;48.708;9.706;2023-02-18T15:04:25;14.60;80.40
4433;DHT22;2229;48.708;9.706;2023-02-18T15:07:00;14.70;81.10
4433;DHT22;2229;48.708;9.706;2023-02-18T15:09:29;14.80;80.70
4433;DHT22;2229;48.708;9.706;2023-02-18T15:12:01;14.80;80.40
4433;DHT22;2229;48.708;9.706;2023-02-18T15:14:32;14.90;80.90
4433;DHT22;2229;48.708;9.706;2023-02-18T15:17:01;14.80;80.20
4433;DHT22;2229;48.708;9.706;2023-02-18T15:19:32;14.70;79.80
4433;DHT22;2229;48.708;9.706;2023-02-18T15:22:02;14.50;80.50
4433;DHT22;2229;48.708;9.706;2023-02-18T15:24:37;14.50;80.40
4433;DHT22;2229;48.708;9.706;2023-02-18T15:27:14;14.40;79.60
4433;DHT22;2229;48.708;9.706;2023-02-18T15:29:42;14.30;79.90
4433;DHT22;2229;48.708;9.706;2023-02-18T15:32:15;14.30;79.90
4433;DHT22;2229;48.708;9.706;2023-02-18T15:34:44;14.20;80.20
4433;DHT22;2229;48.708;9.706;2023-02-18T15:37:17;14.20;79.70
4433;DHT22;2229;48.708;9.706;2023-02-18T15:39:48;14.10;80.00
4433;DHT22;2229;48.708;9.706;2023-02-18T15:42:25;14.00;80.10
4433;DHT22;2229;48.708;9.706;2023-02-18T15:44:56;13.90;80.10
4433;DHT22;2229;48.708;9.706;2023-02-18T15:47:27;13.80;80.90
4433;DHT22;2229;48.708;9.706;2023-02-18T15:49:57;13.80;81.20
4433;DHT22;2229;48.708;9.706;2023-02-18T15:52:28;13.70;81.70
4433;DHT22;2229;48.708;9.706;2023-02-18T15:54:56;13.70;82.00
4433;DHT22;2229;48.708;9.706;2023-02-18T15:57:28;13.60;81.70
4433;DHT22;2229;48.708;9.706;2023-02-18T16:00:05;13.60;82.00
4433;DHT22;2229;48.708;9.706;2023-02-18T16:02:51;13.60;83.00
4433;DHT22;2229;48.708;9.706;2023-02-18T16:05:24;13.60;82.60
4433;DHT22;2229;48.708;9.706;2023-02-18T16:07:55;13.60;82.30
4433;DHT22;2229;48.708;9.706;2023-02-18T16:10:38;13.60;82.50
4433;DHT22;2229;48.708;9.706;2023-02-18T16:13:13;13.60;82.50
4433;DHT22;2229;48.708;9.706;2023-02-18T16:15:49;13.60;82.60
4433;DHT22;2229;48.708;9.706;2023-02-18T16:18:29;13.50;82.70
4433;DHT22;2229;48.708;9.706;2023-02-18T16:20:59;13.50;83.00
4433;DHT22;2229;48.708;9.706;2023-02-18T16:23:35;13.50;83.50
4433;DHT22;2229;48.708;9.706;2023-02-18T16:26:15;13.40;83.40
4433;DHT22;2229;48.708;9.706;2023-02-18T16:28:46;13.40;83.40
4433;DHT22;2229;48.708;9.706;2023-02-18T16:31:13;13.30;83.60
4433;DHT22;2229;48.708;9.706;2023-02-18T16:33:41;13.30;83.70
4433;DHT22;2229;48.708;9.706;2023-02-18T16:36:11;13.30;83.90
4433;DHT22;2229;48.708;9.706;2023-02-18T16:38:44;13.30;84.10
4433;DHT22;2229;48.708;9.706;2023-02-18T16:41:13;13.20;84.10
4433;DHT22;2229;48.708;9.706;2023-02-18T16:43:40;13.20;84.10
4433;DHT22;2229;48.708;9.706;2023-02-18T16:46:13;13.20;84.00
4433;DHT22;2229;48.708;9.706;2023-02-18T16:48:44;13.20;83.70
4433;DHT22;2229;48.708;9.706;2023-02-18T16:51:20;13.20;83.90
4433;DHT22;2229;48.708;9.706;2023-02-18T16:53:48;13.20;84.10
4433;DHT22;2229;48.708;9.706;2023-02-18T16:56:17;13.20;84.10
4433;DHT22;2229;48.708;9.706;2023-02-18T16:58:44;13.10;84.20